Record high temperature 52.3°C Record low temperature -14.8°C Record high gust 66.0 kts Record high average 44.0 kts Record daily rain 221.2 mm Record low windchill -23.5°C Record high barometer 1099.9 hPa Record low barometer 815.2 hPa
Daily high pressure 1017.5 hPa Daily low pressure 1009.7 hPa Daily low windchill 13.9°C Daily high heat index 22.9°C Daily high gust speed 23.0 kts N Daily high average speed 19.2 kts NNW
Potts Point Sydney
LAST READING AT TIME: 08:50 DATE: 18 July 2018, time of next update: 09:00
Current WeatherClear Current Temperature 16.9°C (62.4°F), Apparent temp 16.0°C, Apparent temp solar 16.0°C
Maximum Temperature (since 9am)22.9°C at: 15:26 Minimum Temperature (since 9am)13.9°C at: 06:43
Average windspeed (ten minute)0.1 kts (0.2 kmh) Wind Direction (ten minute)WSW (255°)
Windchill Temperature 16.9°C Maximum Gust (last hour)3.3 kts (6.1 kmh) at: 08:29
Maximum Gust (since 9am)23.0 kts (42.6 kmh) at: 19:14 Maximum 1 minute average (since 9am)19.2 kts (35.6 kmh) at: 16:51
Rainfall (last hour)0.0 mm Rainfall (since 9am)0.0 mm (0.00 in.)---
Rainfall This month 0.0 mm (0.00 in.) Rainfall To date this year 72.2 mm (2.84 in.)
Maximum rain per minute (last hour)0.0 mm/min Maximum rain per hour (last 6 hours)0.0 mm/hour
Yesterdays rainfall 0.0 mm DewPoint 2.1°C (Wet Bulb :10.2°C )
Humidity 37 %, Humidex 15.3°C Barometer corrected to msl1017.4 hPa
Pressure change +0.4 hPa (last hour) Trend (last hour)STEADY
Pressure change (last 12 hours)+7.3 hPa Pressure change (last 6 hours)+5.7 hPa
Current Indoor Temp. 22.8°C
Current Indoor Hum. 34%

This page is updated from recent data collected by a WS2310 weather station Use the Reload or Refresh facility on your browser to retrieve the latest data.


Click here for the last 24 hour graph
Click here for the last 48 hour graph
Click here for the last 72 hour graph
Click here for the month to date graph

Animated web cam image


Weather report/warning/Metars

Sydney Airport, Australia (YSSY) 33-57S 151-11E 3M
Jul 17, 2018 - 06:00 PM EDT / 2018.07.17 2200 UTC
Wind: from the NW (320 degrees) at 5 MPH (4 KT):0
Visibility: greater than 7 mile(s):0
Temperature: 59 F (15 C)
Dew Point: 32 F (0 C)
Relative Humidity: 35%
Pressure (altimeter): 30.03 in. Hg (1017 hPa)
ob: YSSY 172200Z 32004KT CAVOK 15/00 Q1017 NOSIG
cycle: 22
Auckland Airport, New Zealand (NZAA) 37-01S 174-48E 6M
Jul 17, 2018 - 06:30 PM EDT / 2018.07.17 2230 UTC
Wind: from the ESE (110 degrees) at 1 MPH (1 KT):0
Visibility: greater than 7 mile(s):0
Weather: Towering cumulus clouds observed
Temperature: 55 F (13 C)
Dew Point: 53 F (12 C)
Relative Humidity: 93%
Pressure (altimeter): 29.97 in. Hg (1015 hPa)
ob: NZAA 172230Z AUTO 11001KT 9999 NCD 13/12 Q1015 TEMPO FM2300 6000 SHRA FEW030TCU
cycle: 22